sensor_id;sensor_type;location;lat;lon;timestamp;P1;durP1;ratioP1;P2;durP2;ratioP2
62030;SDS011;62035;52.094;5.112;2023-07-31T00:01:30;8.68;;;3.13;;
62030;SDS011;62035;52.094;5.112;2023-07-31T00:03:57;13.45;;;3.92;;
62030;SDS011;62035;52.094;5.112;2023-07-31T00:06:25;17.42;;;4.72;;
62030;SDS011;62035;52.094;5.112;2023-07-31T00:08:52;19.20;;;4.82;;
62030;SDS011;62035;52.094;5.112;2023-07-31T00:11:19;23.48;;;5.65;;
62030;SDS011;62035;52.094;5.112;2023-07-31T00:13:46;24.45;;;6.15;;
62030;SDS011;62035;52.094;5.112;2023-07-31T00:16:13;28.88;;;7.05;;
62030;SDS011;62035;52.094;5.112;2023-07-31T00:18:42;43.55;;;8.40;;
62030;SDS011;62035;52.094;5.112;2023-07-31T00:21:09;34.72;;;7.40;;
62030;SDS011;62035;52.094;5.112;2023-07-31T00:23:36;33.10;;;7.50;;
62030;SDS011;62035;52.094;5.112;2023-07-31T00:26:04;29.50;;;7.57;;
62030;SDS011;62035;52.094;5.112;2023-07-31T00:28:31;35.47;;;7.80;;
62030;SDS011;62035;52.094;5.112;2023-07-31T00:30:58;35.58;;;7.75;;
62030;SDS011;62035;52.094;5.112;2023-07-31T00:33:26;38.75;;;8.98;;
62030;SDS011;62035;52.094;5.112;2023-07-31T00:35:54;38.25;;;7.80;;
62030;SDS011;62035;52.094;5.112;2023-07-31T00:38:22;34.60;;;7.70;;
62030;SDS011;62035;52.094;5.112;2023-07-31T00:40:49;33.05;;;7.30;;
62030;SDS011;62035;52.094;5.112;2023-07-31T00:43:16;41.88;;;7.90;;
62030;SDS011;62035;52.094;5.112;2023-07-31T00:45:44;40.97;;;8.68;;
62030;SDS011;62035;52.094;5.112;2023-07-31T00:48:11;32.92;;;7.47;;
62030;SDS011;62035;52.094;5.112;2023-07-31T00:50:39;32.35;;;8.13;;
62030;SDS011;62035;52.094;5.112;2023-07-31T00:53:07;30.77;;;7.35;;
62030;SDS011;62035;52.094;5.112;2023-07-31T00:55:35;30.80;;;7.22;;
62030;SDS011;62035;52.094;5.112;2023-07-31T00:58:02;31.15;;;7.35;;
62030;SDS011;62035;52.094;5.112;2023-07-31T01:00:29;28.13;;;7.22;;
62030;SDS011;62035;52.094;5.112;2023-07-31T01:02:57;32.58;;;7.75;;
62030;SDS011;62035;52.094;5.112;2023-07-31T01:05:25;26.15;;;7.43;;
62030;SDS011;62035;52.094;5.112;2023-07-31T01:08:02;25.70;;;6.55;;
62030;SDS011;62035;52.094;5.112;2023-07-31T01:10:42;27.75;;;6.40;;
62030;SDS011;62035;52.094;5.112;2023-07-31T01:13:15;33.00;;;7.20;;
62030;SDS011;62035;52.094;5.112;2023-07-31T01:15:44;25.83;;;7.30;;
62030;SDS011;62035;52.094;5.112;2023-07-31T01:18:12;30.15;;;8.02;;
62030;SDS011;62035;52.094;5.112;2023-07-31T01:20:39;27.73;;;7.05;;
62030;SDS011;62035;52.094;5.112;2023-07-31T01:23:23;33.65;;;7.65;;
62030;SDS011;62035;52.094;5.112;2023-07-31T01:26:04;29.80;;;7.65;;
62030;SDS011;62035;52.094;5.112;2023-07-31T01:28:40;32.17;;;6.97;;
62030;SDS011;62035;52.094;5.112;2023-07-31T01:31:14;25.55;;;6.82;;
62030;SDS011;62035;52.094;5.112;2023-07-31T01:33:46;26.98;;;7.32;;
62030;SDS011;62035;52.094;5.112;2023-07-31T01:36:15;32.97;;;8.35;;
62030;SDS011;62035;52.094;5.112;2023-07-31T01:38:42;32.28;;;7.15;;
62030;SDS011;62035;52.094;5.112;2023-07-31T01:41:11;26.60;;;6.63;;
62030;SDS011;62035;52.094;5.112;2023-07-31T01:43:39;33.35;;;7.63;;
62030;SDS011;62035;52.094;5.112;2023-07-31T01:46:06;26.00;;;6.43;;
62030;SDS011;62035;52.094;5.112;2023-07-31T01:48:33;29.95;;;6.82;;
62030;SDS011;62035;52.094;5.112;2023-07-31T01:51:02;27.75;;;6.50;;
62030;SDS011;62035;52.094;5.112;2023-07-31T01:53:30;31.35;;;6.53;;
62030;SDS011;62035;52.094;5.112;2023-07-31T01:55:58;25.52;;;6.22;;
62030;SDS011;62035;52.094;5.112;2023-07-31T01:58:27;20.38;;;5.97;;
62030;SDS011;62035;52.094;5.112;2023-07-31T02:00:54;19.55;;;5.53;;
62030;SDS011;62035;52.094;5.112;2023-07-31T02:03:21;23.08;;;6.07;;
62030;SDS011;62035;52.094;5.112;2023-07-31T02:05:49;23.52;;;5.82;;
62030;SDS011;62035;52.094;5.112;2023-07-31T02:08:16;27.15;;;6.00;;
62030;SDS011;62035;52.094;5.112;2023-07-31T02:10:44;22.23;;;5.32;;
62030;SDS011;62035;52.094;5.112;2023-07-31T02:13:11;19.73;;;5.53;;
62030;SDS011;62035;52.094;5.112;2023-07-31T02:15:40;24.40;;;5.78;;
62030;SDS011;62035;52.094;5.112;2023-07-31T02:18:07;45.08;;;5.63;;
62030;SDS011;62035;52.094;5.112;2023-07-31T02:20:34;24.83;;;6.72;;
62030;SDS011;62035;52.094;5.112;2023-07-31T02:23:02;21.88;;;5.68;;
62030;SDS011;62035;52.094;5.112;2023-07-31T02:25:29;22.05;;;5.95;;
62030;SDS011;62035;52.094;5.112;2023-07-31T02:27:56;24.58;;;5.95;;
62030;SDS011;62035;52.094;5.112;2023-07-31T02:30:23;27.85;;;6.63;;
62030;SDS011;62035;52.094;5.112;2023-07-31T02:32:52;27.45;;;6.55;;
62030;SDS011;62035;52.094;5.112;2023-07-31T02:35:19;28.00;;;5.95;;
62030;SDS011;62035;52.094;5.112;2023-07-31T02:37:46;20.38;;;5.78;;
62030;SDS011;62035;52.094;5.112;2023-07-31T02:40:14;27.88;;;6.18;;
62030;SDS011;62035;52.094;5.112;2023-07-31T02:42:41;27.60;;;6.05;;
62030;SDS011;62035;52.094;5.112;2023-07-31T02:45:08;39.38;;;8.70;;
62030;SDS011;62035;52.094;5.112;2023-07-31T02:47:36;41.30;;;7.65;;
62030;SDS011;62035;52.094;5.112;2023-07-31T02:50:05;25.52;;;6.15;;
62030;SDS011;62035;52.094;5.112;2023-07-31T02:52:33;37.65;;;7.57;;
62030;SDS011;62035;52.094;5.112;2023-07-31T02:55:00;26.35;;;7.13;;
62030;SDS011;62035;52.094;5.112;2023-07-31T02:57:27;28.77;;;6.50;;
62030;SDS011;62035;52.094;5.112;2023-07-31T02:59:55;30.80;;;6.95;;
62030;SDS011;62035;52.094;5.112;2023-07-31T03:02:22;24.23;;;6.30;;
62030;SDS011;62035;52.094;5.112;2023-07-31T03:04:49;28.40;;;6.53;;
62030;SDS011;62035;52.094;5.112;2023-07-31T03:07:18;31.98;;;6.53;;
62030;SDS011;62035;52.094;5.112;2023-07-31T03:09:45;30.95;;;7.22;;
62030;SDS011;62035;52.094;5.112;2023-07-31T03:12:12;22.33;;;6.00;;
62030;SDS011;62035;52.094;5.112;2023-07-31T03:14:39;30.17;;;7.10;;
62030;SDS011;62035;52.094;5.112;2023-07-31T03:17:07;29.80;;;6.75;;
62030;SDS011;62035;52.094;5.112;2023-07-31T03:19:34;26.50;;;6.63;;
62030;SDS011;62035;52.094;5.112;2023-07-31T03:22:01;25.75;;;7.13;;
62030;SDS011;62035;52.094;5.112;2023-07-31T03:24:30;26.17;;;7.07;;
62030;SDS011;62035;52.094;5.112;2023-07-31T03:26:57;21.05;;;7.07;;
62030;SDS011;62035;52.094;5.112;2023-07-31T03:29:25;32.47;;;6.07;;
62030;SDS011;62035;52.094;5.112;2023-07-31T03:31:52;22.08;;;6.85;;
62030;SDS011;62035;52.094;5.112;2023-07-31T03:34:19;29.73;;;6.60;;
62030;SDS011;62035;52.094;5.112;2023-07-31T03:36:46;25.63;;;6.07;;
62030;SDS011;62035;52.094;5.112;2023-07-31T03:39:13;27.77;;;6.85;;
62030;SDS011;62035;52.094;5.112;2023-07-31T03:41:42;22.98;;;6.10;;
62030;SDS011;62035;52.094;5.112;2023-07-31T03:44:09;20.95;;;5.55;;
62030;SDS011;62035;52.094;5.112;2023-07-31T03:46:37;27.45;;;6.35;;
62030;SDS011;62035;52.094;5.112;2023-07-31T03:49:04;25.77;;;6.25;;
62030;SDS011;62035;52.094;5.112;2023-07-31T03:51:31;27.58;;;6.35;;
62030;SDS011;62035;52.094;5.112;2023-07-31T03:53:58;22.60;;;6.00;;
62030;SDS011;62035;52.094;5.112;2023-07-31T03:56:26;28.67;;;6.95;;
62030;SDS011;62035;52.094;5.112;2023-07-31T03:58:55;19.00;;;5.55;;
62030;SDS011;62035;52.094;5.112;2023-07-31T04:01:22;26.63;;;6.18;;
62030;SDS011;62035;52.094;5.112;2023-07-31T04:03:49;27.45;;;6.40;;
62030;SDS011;62035;52.094;5.112;2023-07-31T04:06:16;29.58;;;6.35;;
62030;SDS011;62035;52.094;5.112;2023-07-31T04:08:44;22.17;;;6.80;;
62030;SDS011;62035;52.094;5.112;2023-07-31T04:11:12;21.63;;;6.10;;
62030;SDS011;62035;52.094;5.112;2023-07-31T04:13:39;26.08;;;6.90;;
62030;SDS011;62035;52.094;5.112;2023-07-31T04:16:07;19.98;;;6.18;;
62030;SDS011;62035;52.094;5.112;2023-07-31T04:18:35;26.98;;;6.22;;
62030;SDS011;62035;52.094;5.112;2023-07-31T04:21:02;23.55;;;6.50;;
62030;SDS011;62035;52.094;5.112;2023-07-31T04:23:29;32.58;;;7.30;;
62030;SDS011;62035;52.094;5.112;2023-07-31T04:25:56;17.80;;;5.45;;
62030;SDS011;62035;52.094;5.112;2023-07-31T04:28:24;22.45;;;6.57;;
62030;SDS011;62035;52.094;5.112;2023-07-31T04:30:51;13.77;;;4.93;;
62030;SDS011;62035;52.094;5.112;2023-07-31T04:33:20;24.52;;;5.93;;
62030;SDS011;62035;52.094;5.112;2023-07-31T04:35:51;20.75;;;6.70;;
62030;SDS011;62035;52.094;5.112;2023-07-31T04:38:18;25.43;;;6.60;;
62030;SDS011;62035;52.094;5.112;2023-07-31T04:40:46;20.42;;;6.50;;
62030;SDS011;62035;52.094;5.112;2023-07-31T04:43:13;19.17;;;6.18;;
62030;SDS011;62035;52.094;5.112;2023-07-31T04:45:42;21.90;;;7.25;;
62030;SDS011;62035;52.094;5.112;2023-07-31T04:48:11;20.23;;;5.80;;
62030;SDS011;62035;52.094;5.112;2023-07-31T04:50:40;17.10;;;5.93;;
62030;SDS011;62035;52.094;5.112;2023-07-31T04:53:07;18.48;;;5.97;;
62030;SDS011;62035;52.094;5.112;2023-07-31T04:55:34;17.65;;;5.78;;
62030;SDS011;62035;52.094;5.112;2023-07-31T04:58:01;20.98;;;6.00;;
62030;SDS011;62035;52.094;5.112;2023-07-31T05:00:29;16.40;;;5.72;;
62030;SDS011;62035;52.094;5.112;2023-07-31T05:02:56;17.13;;;6.03;;
62030;SDS011;62035;52.094;5.112;2023-07-31T05:05:23;16.88;;;5.68;;
62030;SDS011;62035;52.094;5.112;2023-07-31T05:07:52;16.38;;;5.88;;
62030;SDS011;62035;52.094;5.112;2023-07-31T05:10:19;16.85;;;5.85;;
62030;SDS011;62035;52.094;5.112;2023-07-31T05:12:46;16.98;;;5.82;;
62030;SDS011;62035;52.094;5.112;2023-07-31T05:15:14;16.05;;;5.20;;
62030;SDS011;62035;52.094;5.112;2023-07-31T05:17:41;17.17;;;5.15;;
62030;SDS011;62035;52.094;5.112;2023-07-31T05:20:08;10.38;;;4.70;;
62030;SDS011;62035;52.094;5.112;2023-07-31T05:22:36;13.15;;;4.68;;
62030;SDS011;62035;52.094;5.112;2023-07-31T05:25:05;10.52;;;4.18;;
62030;SDS011;62035;52.094;5.112;2023-07-31T05:27:32;11.18;;;4.40;;
62030;SDS011;62035;52.094;5.112;2023-07-31T05:30:00;8.80;;;4.07;;
62030;SDS011;62035;52.094;5.112;2023-07-31T05:32:27;10.40;;;4.32;;
62030;SDS011;62035;52.094;5.112;2023-07-31T05:34:55;13.75;;;3.92;;
62030;SDS011;62035;52.094;5.112;2023-07-31T05:37:22;12.15;;;4.43;;
62030;SDS011;62035;52.094;5.112;2023-07-31T05:39:49;11.73;;;4.20;;
62030;SDS011;62035;52.094;5.112;2023-07-31T05:42:18;14.70;;;4.82;;
62030;SDS011;62035;52.094;5.112;2023-07-31T05:44:46;13.65;;;5.18;;
62030;SDS011;62035;52.094;5.112;2023-07-31T05:47:13;10.73;;;4.38;;
62030;SDS011;62035;52.094;5.112;2023-07-31T05:49:40;12.13;;;4.50;;
62030;SDS011;62035;52.094;5.112;2023-07-31T05:52:08;13.05;;;5.10;;
62030;SDS011;62035;52.094;5.112;2023-07-31T05:54:35;10.57;;;4.13;;
62030;SDS011;62035;52.094;5.112;2023-07-31T05:57:02;12.45;;;4.72;;
62030;SDS011;62035;52.094;5.112;2023-07-31T05:59:31;13.73;;;4.45;;
62030;SDS011;62035;52.094;5.112;2023-07-31T06:01:59;11.50;;;3.85;;
62030;SDS011;62035;52.094;5.112;2023-07-31T06:04:26;13.13;;;4.13;;
62030;SDS011;62035;52.094;5.112;2023-07-31T06:06:53;10.75;;;4.10;;
62030;SDS011;62035;52.094;5.112;2023-07-31T06:09:21;9.55;;;3.40;;
62030;SDS011;62035;52.094;5.112;2023-07-31T06:11:48;9.70;;;4.00;;
62030;SDS011;62035;52.094;5.112;2023-07-31T06:14:15;11.40;;;4.40;;
62030;SDS011;62035;52.094;5.112;2023-07-31T06:16:44;8.45;;;3.55;;
62030;SDS011;62035;52.094;5.112;2023-07-31T06:19:12;9.73;;;3.70;;
62030;SDS011;62035;52.094;5.112;2023-07-31T06:21:39;9.30;;;3.55;;
62030;SDS011;62035;52.094;5.112;2023-07-31T06:24:08;8.63;;;3.47;;
62030;SDS011;62035;52.094;5.112;2023-07-31T06:26:35;8.43;;;3.30;;
62030;SDS011;62035;52.094;5.112;2023-07-31T06:29:02;9.00;;;3.00;;
62030;SDS011;62035;52.094;5.112;2023-07-31T06:31:29;7.03;;;3.20;;
62030;SDS011;62035;52.094;5.112;2023-07-31T06:33:58;7.32;;;2.90;;
62030;SDS011;62035;52.094;5.112;2023-07-31T06:36:25;8.05;;;3.10;;
62030;SDS011;62035;52.094;5.112;2023-07-31T06:38:52;7.50;;;3.70;;
62030;SDS011;62035;52.094;5.112;2023-07-31T06:41:20;7.43;;;3.45;;
62030;SDS011;62035;52.094;5.112;2023-07-31T06:43:47;8.50;;;3.83;;
62030;SDS011;62035;52.094;5.112;2023-07-31T06:46:14;8.45;;;3.58;;
62030;SDS011;62035;52.094;5.112;2023-07-31T06:48:41;10.80;;;3.60;;
62030;SDS011;62035;52.094;5.112;2023-07-31T06:51:10;11.10;;;4.00;;
62030;SDS011;62035;52.094;5.112;2023-07-31T06:53:37;14.40;;;3.58;;
62030;SDS011;62035;52.094;5.112;2023-07-31T06:56:04;7.65;;;3.22;;
62030;SDS011;62035;52.094;5.112;2023-07-31T06:58:32;9.13;;;4.10;;
62030;SDS011;62035;52.094;5.112;2023-07-31T07:00:59;7.75;;;3.25;;
62030;SDS011;62035;52.094;5.112;2023-07-31T07:03:26;13.27;;;3.65;;
62030;SDS011;62035;52.094;5.112;2023-07-31T07:05:54;7.78;;;3.30;;
62030;SDS011;62035;52.094;5.112;2023-07-31T07:08:23;9.18;;;3.13;;
62030;SDS011;62035;52.094;5.112;2023-07-31T07:10:50;8.45;;;3.38;;
62030;SDS011;62035;52.094;5.112;2023-07-31T07:13:18;5.60;;;3.00;;
62030;SDS011;62035;52.094;5.112;2023-07-31T07:15:47;9.10;;;3.38;;
62030;SDS011;62035;52.094;5.112;2023-07-31T07:18:15;6.68;;;3.03;;
62030;SDS011;62035;52.094;5.112;2023-07-31T07:20:45;7.72;;;2.90;;
62030;SDS011;62035;52.094;5.112;2023-07-31T07:23:13;6.70;;;3.00;;
62030;SDS011;62035;52.094;5.112;2023-07-31T07:25:42;8.65;;;3.30;;
62030;SDS011;62035;52.094;5.112;2023-07-31T07:28:09;8.25;;;3.13;;
62030;SDS011;62035;52.094;5.112;2023-07-31T07:30:37;6.00;;;2.92;;
62030;SDS011;62035;52.094;5.112;2023-07-31T07:33:05;7.60;;;2.65;;
62030;SDS011;62035;52.094;5.112;2023-07-31T07:35:32;6.00;;;2.80;;
62030;SDS011;62035;52.094;5.112;2023-07-31T07:38:00;4.82;;;2.38;;
62030;SDS011;62035;52.094;5.112;2023-07-31T07:40:29;5.07;;;2.65;;
62030;SDS011;62035;52.094;5.112;2023-07-31T07:42:57;8.20;;;2.67;;
62030;SDS011;62035;52.094;5.112;2023-07-31T07:45:25;5.00;;;2.45;;
62030;SDS011;62035;52.094;5.112;2023-07-31T07:47:53;5.78;;;2.38;;
62030;SDS011;62035;52.094;5.112;2023-07-31T07:50:20;5.47;;;2.50;;
62030;SDS011;62035;52.094;5.112;2023-07-31T07:52:47;6.32;;;2.65;;
62030;SDS011;62035;52.094;5.112;2023-07-31T07:55:14;5.20;;;2.10;;
62030;SDS011;62035;52.094;5.112;2023-07-31T07:57:42;3.72;;;2.10;;
62030;SDS011;62035;52.094;5.112;2023-07-31T08:00:11;5.53;;;2.22;;
62030;SDS011;62035;52.094;5.112;2023-07-31T08:02:39;4.10;;;2.30;;
62030;SDS011;62035;52.094;5.112;2023-07-31T08:05:06;3.78;;;2.03;;
62030;SDS011;62035;52.094;5.112;2023-07-31T08:07:34;4.35;;;2.00;;
62030;SDS011;62035;52.094;5.112;2023-07-31T08:10:01;5.68;;;2.38;;
62030;SDS011;62035;52.094;5.112;2023-07-31T08:12:29;4.13;;;1.63;;
62030;SDS011;62035;52.094;5.112;2023-07-31T08:14:56;5.65;;;1.90;;
62030;SDS011;62035;52.094;5.112;2023-07-31T08:17:27;6.05;;;2.03;;
62030;SDS011;62035;52.094;5.112;2023-07-31T08:19:54;4.28;;;2.20;;
62030;SDS011;62035;52.094;5.112;2023-07-31T08:22:23;2.90;;;1.63;;
62030;SDS011;62035;52.094;5.112;2023-07-31T08:24:51;4.63;;;2.00;;
62030;SDS011;62035;52.094;5.112;2023-07-31T08:27:18;4.60;;;1.80;;
62030;SDS011;62035;52.094;5.112;2023-07-31T08:29:45;5.07;;;1.90;;
62030;SDS011;62035;52.094;5.112;2023-07-31T08:32:13;4.18;;;1.70;;
62030;SDS011;62035;52.094;5.112;2023-07-31T08:34:41;5.45;;;1.92;;
62030;SDS011;62035;52.094;5.112;2023-07-31T08:37:09;3.67;;;1.92;;
62030;SDS011;62035;52.094;5.112;2023-07-31T08:39:37;3.92;;;1.98;;
62030;SDS011;62035;52.094;5.112;2023-07-31T08:42:07;3.58;;;1.70;;
62030;SDS011;62035;52.094;5.112;2023-07-31T08:44:35;5.10;;;1.80;;
62030;SDS011;62035;52.094;5.112;2023-07-31T08:47:03;2.55;;;1.58;;
62030;SDS011;62035;52.094;5.112;2023-07-31T08:49:31;3.33;;;1.70;;
62030;SDS011;62035;52.094;5.112;2023-07-31T08:52:00;2.60;;;1.77;;
62030;SDS011;62035;52.094;5.112;2023-07-31T08:54:29;3.85;;;2.20;;
62030;SDS011;62035;52.094;5.112;2023-07-31T08:56:58;3.40;;;2.22;;
62030;SDS011;62035;52.094;5.112;2023-07-31T08:59:26;4.07;;;1.73;;
62030;SDS011;62035;52.094;5.112;2023-07-31T09:01:57;3.20;;;1.80;;
62030;SDS011;62035;52.094;5.112;2023-07-31T09:04:30;3.13;;;1.77;;
62030;SDS011;62035;52.094;5.112;2023-07-31T09:07:00;4.03;;;1.88;;
62030;SDS011;62035;52.094;5.112;2023-07-31T09:09:30;3.13;;;2.08;;
62030;SDS011;62035;52.094;5.112;2023-07-31T09:11:57;3.47;;;2.08;;
62030;SDS011;62035;52.094;5.112;2023-07-31T09:14:25;3.55;;;2.22;;
62030;SDS011;62035;52.094;5.112;2023-07-31T09:16:53;3.88;;;1.80;;
62030;SDS011;62035;52.094;5.112;2023-07-31T09:19:24;3.53;;;2.10;;
62030;SDS011;62035;52.094;5.112;2023-07-31T09:21:53;2.90;;;1.88;;
62030;SDS011;62035;52.094;5.112;2023-07-31T09:24:28;3.03;;;1.75;;
62030;SDS011;62035;52.094;5.112;2023-07-31T09:26:57;2.97;;;1.98;;
62030;SDS011;62035;52.094;5.112;2023-07-31T09:29:25;3.67;;;1.77;;
62030;SDS011;62035;52.094;5.112;2023-07-31T09:31:53;6.20;;;2.30;;
62030;SDS011;62035;52.094;5.112;2023-07-31T09:34:29;2.90;;;2.25;;
62030;SDS011;62035;52.094;5.112;2023-07-31T09:36:58;3.70;;;2.20;;
62030;SDS011;62035;52.094;5.112;2023-07-31T09:39:30;3.15;;;2.15;;
62030;SDS011;62035;52.094;5.112;2023-07-31T09:41:57;3.10;;;1.70;;
62030;SDS011;62035;52.094;5.112;2023-07-31T09:47:08;2.47;;;1.80;;
62030;SDS011;62035;52.094;5.112;2023-07-31T09:49:48;2.97;;;1.80;;
62030;SDS011;62035;52.094;5.112;2023-07-31T09:52:16;2.70;;;1.70;;
62030;SDS011;62035;52.094;5.112;2023-07-31T09:54:44;3.08;;;2.00;;
62030;SDS011;62035;52.094;5.112;2023-07-31T09:57:12;3.47;;;2.20;;
62030;SDS011;62035;52.094;5.112;2023-07-31T09:59:42;13.37;;;2.40;;
62030;SDS011;62035;52.094;5.112;2023-07-31T10:02:10;4.10;;;2.38;;
62030;SDS011;62035;52.094;5.112;2023-07-31T10:04:47;4.60;;;2.58;;
62030;SDS011;62035;52.094;5.112;2023-07-31T10:07:17;5.93;;;2.63;;
62030;SDS011;62035;52.094;5.112;2023-07-31T10:09:48;4.32;;;2.78;;
62030;SDS011;62035;52.094;5.112;2023-07-31T10:12:16;4.93;;;2.65;;
62030;SDS011;62035;52.094;5.112;2023-07-31T10:14:46;4.13;;;3.00;;
62030;SDS011;62035;52.094;5.112;2023-07-31T10:17:13;5.35;;;3.30;;
62030;SDS011;62035;52.094;5.112;2023-07-31T10:19:42;5.30;;;3.30;;
62030;SDS011;62035;52.094;5.112;2023-07-31T10:22:10;6.95;;;3.33;;
62030;SDS011;62035;52.094;5.112;2023-07-31T10:24:39;5.72;;;4.00;;
62030;SDS011;62035;52.094;5.112;2023-07-31T10:27:09;6.25;;;3.83;;
62030;SDS011;62035;52.094;5.112;2023-07-31T10:29:37;7.90;;;3.90;;
62030;SDS011;62035;52.094;5.112;2023-07-31T10:32:06;6.38;;;3.70;;
62030;SDS011;62035;52.094;5.112;2023-07-31T10:34:36;8.88;;;4.03;;
62030;SDS011;62035;52.094;5.112;2023-07-31T10:37:19;5.88;;;3.78;;
62030;SDS011;62035;52.094;5.112;2023-07-31T10:39:54;7.95;;;4.25;;
62030;SDS011;62035;52.094;5.112;2023-07-31T10:42:28;7.88;;;4.00;;
62030;SDS011;62035;52.094;5.112;2023-07-31T10:44:57;5.70;;;3.40;;
62030;SDS011;62035;52.094;5.112;2023-07-31T10:47:25;6.68;;;3.50;;
62030;SDS011;62035;52.094;5.112;2023-07-31T10:49:53;11.02;;;3.60;;
62030;SDS011;62035;52.094;5.112;2023-07-31T10:52:39;6.00;;;3.20;;
62030;SDS011;62035;52.094;5.112;2023-07-31T10:55:16;4.60;;;3.20;;
62030;SDS011;62035;52.094;5.112;2023-07-31T10:57:52;5.47;;;2.95;;
62030;SDS011;62035;52.094;5.112;2023-07-31T11:00:21;4.43;;;2.70;;
62030;SDS011;62035;52.094;5.112;2023-07-31T11:02:57;3.45;;;2.25;;
62030;SDS011;62035;52.094;5.112;2023-07-31T11:05:45;5.53;;;2.05;;
62030;SDS011;62035;52.094;5.112;2023-07-31T11:08:15;4.40;;;2.33;;
62030;SDS011;62035;52.094;5.112;2023-07-31T11:10:45;2.78;;;1.98;;
62030;SDS011;62035;52.094;5.112;2023-07-31T11:13:14;4.00;;;2.17;;
62030;SDS011;62035;52.094;5.112;2023-07-31T11:15:42;5.32;;;2.53;;
62030;SDS011;62035;52.094;5.112;2023-07-31T11:18:09;5.47;;;2.20;;
62030;SDS011;62035;52.094;5.112;2023-07-31T11:20:37;5.15;;;2.70;;
62030;SDS011;62035;52.094;5.112;2023-07-31T11:23:06;3.63;;;2.30;;
62030;SDS011;62035;52.094;5.112;2023-07-31T11:25:35;4.85;;;2.58;;
62030;SDS011;62035;52.094;5.112;2023-07-31T11:28:03;7.10;;;2.78;;
62030;SDS011;62035;52.094;5.112;2023-07-31T11:30:33;5.60;;;2.90;;
62030;SDS011;62035;52.094;5.112;2023-07-31T11:33:01;7.95;;;3.35;;
62030;SDS011;62035;52.094;5.112;2023-07-31T11:35:30;8.10;;;2.88;;
62030;SDS011;62035;52.094;5.112;2023-07-31T11:37:58;6.25;;;3.47;;
62030;SDS011;62035;52.094;5.112;2023-07-31T11:40:26;6.00;;;3.65;;
62030;SDS011;62035;52.094;5.112;2023-07-31T11:42:58;9.50;;;4.25;;
62030;SDS011;62035;52.094;5.112;2023-07-31T11:45:25;6.35;;;3.85;;
62030;SDS011;62035;52.094;5.112;2023-07-31T11:47:57;6.67;;;4.17;;
62030;SDS011;62035;52.094;5.112;2023-07-31T11:50:24;7.97;;;4.30;;
62030;SDS011;62035;52.094;5.112;2023-07-31T11:52:53;8.82;;;4.05;;
62030;SDS011;62035;52.094;5.112;2023-07-31T11:55:23;8.27;;;5.03;;
62030;SDS011;62035;52.094;5.112;2023-07-31T11:57:51;10.18;;;5.53;;
62030;SDS011;62035;52.094;5.112;2023-07-31T12:00:21;9.25;;;4.60;;
62030;SDS011;62035;52.094;5.112;2023-07-31T12:02:48;7.18;;;4.47;;
62030;SDS011;62035;52.094;5.112;2023-07-31T12:05:18;7.82;;;4.80;;
62030;SDS011;62035;52.094;5.112;2023-07-31T12:07:46;8.93;;;4.25;;
62030;SDS011;62035;52.094;5.112;2023-07-31T12:10:24;8.20;;;3.90;;
62030;SDS011;62035;52.094;5.112;2023-07-31T12:12:55;5.82;;;4.22;;
62030;SDS011;62035;52.094;5.112;2023-07-31T12:15:36;6.15;;;3.70;;
62030;SDS011;62035;52.094;5.112;2023-07-31T12:18:06;6.68;;;3.78;;
62030;SDS011;62035;52.094;5.112;2023-07-31T12:20:39;6.57;;;3.90;;
62030;SDS011;62035;52.094;5.112;2023-07-31T12:23:07;8.88;;;3.70;;
62030;SDS011;62035;52.094;5.112;2023-07-31T12:25:40;10.13;;;3.47;;
62030;SDS011;62035;52.094;5.112;2023-07-31T12:28:08;5.97;;;3.35;;
62030;SDS011;62035;52.094;5.112;2023-07-31T12:30:38;7.45;;;4.18;;
62030;SDS011;62035;52.094;5.112;2023-07-31T12:33:07;5.53;;;3.60;;
62030;SDS011;62035;52.094;5.112;2023-07-31T12:35:43;5.20;;;3.00;;
62030;SDS011;62035;52.094;5.112;2023-07-31T12:38:11;4.88;;;3.25;;
62030;SDS011;62035;52.094;5.112;2023-07-31T12:40:39;6.10;;;3.05;;
62030;SDS011;62035;52.094;5.112;2023-07-31T12:43:08;4.32;;;2.97;;
62030;SDS011;62035;52.094;5.112;2023-07-31T12:45:35;5.45;;;3.33;;
62030;SDS011;62035;52.094;5.112;2023-07-31T12:48:03;5.15;;;3.50;;
62030;SDS011;62035;52.094;5.112;2023-07-31T12:50:30;5.88;;;3.13;;
62030;SDS011;62035;52.094;5.112;2023-07-31T12:52:59;8.70;;;3.70;;
62030;SDS011;62035;52.094;5.112;2023-07-31T12:55:26;4.85;;;3.30;;
62030;SDS011;62035;52.094;5.112;2023-07-31T12:57:53;4.78;;;3.33;;
62030;SDS011;62035;52.094;5.112;2023-07-31T13:00:20;5.30;;;3.50;;
62030;SDS011;62035;52.094;5.112;2023-07-31T13:02:48;7.63;;;3.33;;
62030;SDS011;62035;52.094;5.112;2023-07-31T13:05:15;6.68;;;3.33;;
62030;SDS011;62035;52.094;5.112;2023-07-31T13:07:42;4.30;;;3.10;;
62030;SDS011;62035;52.094;5.112;2023-07-31T13:10:11;4.55;;;3.20;;
62030;SDS011;62035;52.094;5.112;2023-07-31T13:12:38;7.60;;;3.13;;
62030;SDS011;62035;52.094;5.112;2023-07-31T13:15:06;4.70;;;3.40;;
62030;SDS011;62035;52.094;5.112;2023-07-31T13:17:34;3.10;;;2.58;;
62030;SDS011;62035;52.094;5.112;2023-07-31T13:20:02;6.43;;;2.70;;
62030;SDS011;62035;52.094;5.112;2023-07-31T13:22:30;4.32;;;2.83;;
62030;SDS011;62035;52.094;5.112;2023-07-31T13:24:57;3.83;;;2.72;;
62030;SDS011;62035;52.094;5.112;2023-07-31T13:27:26;4.60;;;2.80;;
62030;SDS011;62035;52.094;5.112;2023-07-31T13:29:53;3.03;;;2.25;;
62030;SDS011;62035;52.094;5.112;2023-07-31T13:32:21;3.50;;;2.38;;
62030;SDS011;62035;52.094;5.112;2023-07-31T13:34:48;2.30;;;1.50;;
62030;SDS011;62035;52.094;5.112;2023-07-31T13:37:16;5.85;;;1.58;;
62030;SDS011;62035;52.094;5.112;2023-07-31T13:39:43;2.83;;;1.60;;
62030;SDS011;62035;52.094;5.112;2023-07-31T13:42:10;2.78;;;1.75;;
62030;SDS011;62035;52.094;5.112;2023-07-31T13:44:39;3.40;;;1.90;;
62030;SDS011;62035;52.094;5.112;2023-07-31T13:47:07;4.18;;;2.63;;
62030;SDS011;62035;52.094;5.112;2023-07-31T13:49:35;3.17;;;2.10;;
62030;SDS011;62035;52.094;5.112;2023-07-31T13:52:04;3.33;;;1.80;;
62030;SDS011;62035;52.094;5.112;2023-07-31T13:54:32;3.03;;;1.80;;
62030;SDS011;62035;52.094;5.112;2023-07-31T13:56:59;3.35;;;1.60;;
62030;SDS011;62035;52.094;5.112;2023-07-31T13:59:27;3.67;;;2.08;;
62030;SDS011;62035;52.094;5.112;2023-07-31T14:01:55;4.32;;;1.92;;
62030;SDS011;62035;52.094;5.112;2023-07-31T14:04:23;4.57;;;2.08;;
62030;SDS011;62035;52.094;5.112;2023-07-31T14:06:50;4.40;;;2.40;;
62030;SDS011;62035;52.094;5.112;2023-07-31T14:09:17;6.20;;;2.40;;
62030;SDS011;62035;52.094;5.112;2023-07-31T14:11:44;4.93;;;2.60;;
62030;SDS011;62035;52.094;5.112;2023-07-31T14:14:12;3.47;;;2.13;;
62030;SDS011;62035;52.094;5.112;2023-07-31T14:16:39;2.55;;;1.73;;
62030;SDS011;62035;52.094;5.112;2023-07-31T14:19:08;3.20;;;1.88;;
62030;SDS011;62035;52.094;5.112;2023-07-31T14:21:35;4.38;;;1.90;;
62030;SDS011;62035;52.094;5.112;2023-07-31T14:24:03;3.90;;;2.25;;
62030;SDS011;62035;52.094;5.112;2023-07-31T14:26:30;3.75;;;2.30;;
62030;SDS011;62035;52.094;5.112;2023-07-31T14:28:59;4.35;;;2.53;;
62030;SDS011;62035;52.094;5.112;2023-07-31T14:31:26;4.65;;;2.58;;
62030;SDS011;62035;52.094;5.112;2023-07-31T14:33:53;3.75;;;2.05;;
62030;SDS011;62035;52.094;5.112;2023-07-31T14:36:22;5.75;;;2.88;;
62030;SDS011;62035;52.094;5.112;2023-07-31T14:38:49;5.78;;;3.03;;
62030;SDS011;62035;52.094;5.112;2023-07-31T14:41:16;4.32;;;2.90;;
62030;SDS011;62035;52.094;5.112;2023-07-31T14:43:44;4.82;;;2.25;;
62030;SDS011;62035;52.094;5.112;2023-07-31T14:46:11;8.20;;;2.30;;
62030;SDS011;62035;52.094;5.112;2023-07-31T14:48:38;5.50;;;2.85;;
62030;SDS011;62035;52.094;5.112;2023-07-31T14:51:06;3.28;;;2.17;;
62030;SDS011;62035;52.094;5.112;2023-07-31T14:53:34;2.90;;;1.90;;